Ikan Bagat — 3EYX8 — position and weather

sailwx.info

Track history (hours):
 
Tides and Currents Weather Stations Pressure Air Temp Water Temp Dewpoint Dewpoint Depression Visibility Wind Speed Wind Dir Waves Ship Positions

Ikan Bagat

Last reported at 2017-May-23 22:25 UTC. Time now 2017-May-28 18:35 UTC.
Position S 30°40' E 040°55'.

Length 229 m; draft 10.5 m.

Type: Ship. MMSI: 354375000.

Date/timePositionNaut miles runAvg speedWind from/ knotsBaromVisibWave heightAir tempDewpointWater temp
2017-May-23 22:25S 30°40' E 040°55'1015.3
2017-May-23 21:48S 30°44' E 040°45'515.3
2017-May-23 21:28S 30°46' E 040°40'1214.9
2017-May-23 20:40S 30°51' E 040°27'314.8
2017-May-23 20:29S 30°53' E 040°24'714.9
2017-May-23 20:00S 30°56' E 040°17'3614.5
2017-May-23 17:32S 31°11' E 039°39'114.2
2017-May-23 17:29S 31°11' E 039°38'2014.5
2017-May-23 16:06S 31°20' E 039°17'114.4
2017-May-23 16:00S 31°20' E 039°15'714.2
2017-May-23 15:30S 31°23' E 039°08'714.2
2017-May-23 14:59S 31°27' E 039°00'1414.3
2017-May-23 14:00S 31°33' E 038°46'714.2
2017-May-23 13:30S 31°36' E 038°38'713.9
2017-May-23 13:00S 31°39' E 038°30'713.6
2017-May-23 12:28S 31°42' E 038°23'713.6
2017-May-23 11:59S 31°45' E 038°16'713.6
2017-May-23 11:28S 31°48' E 038°08'613.8
2017-May-23 11:01S 31°50' E 038°02'713.9
2017-May-23 10:29S 31°53' E 037°54'713.8
2017-May-23 10:00S 31°56' E 037°47'713.9
2017-May-23 09:30S 31°59' E 037°39'714.2
2017-May-23 08:59S 32°02' E 037°31'714.2
2017-May-23 08:31S 32°05' E 037°24'714.3
2017-May-23 08:00S 32°08' E 037°17'714.4
2017-May-23 07:30S 32°11' E 037°09'714.5
2017-May-23 07:01S 32°14' E 037°01'714.3
2017-May-23 06:29S 32°18' E 036°53'714.3
2017-May-23 06:01S 32°20' E 036°46'814.4
2017-May-23 05:29S 32°24' E 036°38'714.2
2017-May-23 05:01S 32°27' E 036°31'713.7
2017-May-23 04:29S 32°30' E 036°23'613.4
2017-May-23 04:00S 32°32' E 036°16'713.6
2017-May-23 03:30S 32°35' E 036°09'713.6
2017-May-23 03:01S 32°38' E 036°01'713.5
2017-May-23 02:30S 32°41' E 035°54'713.7
2017-May-23 02:00S 32°44' E 035°47'713.8
2017-May-23 01:29S 32°47' E 035°39'713.6
2017-May-23 01:00S 32°50' E 035°32'813.6
2017-May-23 00:27S 32°53' E 035°24'613.5
2017-May-23 00:01S 32°56' E 035°17'713.7
2017-May-22 23:30S 32°59' E 035°10'714.0
2017-May-22 23:01S 33°02' E 035°03'713.7
2017-May-22 22:30S 33°05' E 034°55'713.8
2017-May-22 22:00S 33°07' E 034°48'714.0
2017-May-22 21:31S 33°10' E 034°40'714.1
2017-May-22 21:00S 33°14' E 034°33'713.9
2017-May-22 20:31S 33°16' E 034°25'714.1
2017-May-22 20:00S 33°19' E 034°17'714.0
2017-May-22 19:30S 33°22' E 034°10'714.0
2017-May-22 19:00S 33°25' E 034°02'713.6
2017-May-22 18:30S 33°28' E 033°55'713.7
2017-May-22 18:00S 33°31' E 033°47'914.0
2017-May-22 17:22S 33°35' E 033°38'614.2
2017-May-22 16:57S 33°38' E 033°31'714.0
2017-May-22 16:29S 33°40' E 033°24'714.0
2017-May-22 16:00S 33°43' E 033°17'714.0
2017-May-22 15:30S 33°46' E 033°09'814.0
2017-May-22 14:58S 33°49' E 033°01'2214.3
2017-May-22 13:28S 33°59' E 032°38'714.7
2017-May-22 13:00S 34°02' E 032°30'714.7
2017-May-22 12:30S 34°05' E 032°22'714.6
2017-May-22 12:00S 34°08' E 032°14'714.5
2017-May-22 11:30S 34°11' E 032°06'714.5
2017-May-22 11:00S 34°14' E 031°59'714.2
2017-May-22 10:30S 34°17' E 031°51'714.2
2017-May-22 10:00S 34°20' E 031°43'1214.1
2017-May-22 09:11S 34°25' E 031°30'214.0
2017-May-22 09:00S 34°26' E 031°28'713.9
2017-May-22 08:30S 34°29' E 031°20'714.1
2017-May-22 08:01S 34°32' E 031°12'714.0
2017-May-22 07:30S 34°35' E 031°05'713.7
2017-May-22 07:01S 34°38' E 030°57'714.1
2017-May-22 06:31S 34°41' E 030°49'714.4
2017-May-22 06:01S 34°44' E 030°41'713.9
2017-May-22 05:30S 34°47' E 030°34'713.7
2017-May-22 05:00S 34°49' E 030°26'713.7
2017-May-22 04:31S 34°52' E 030°18'714.2
2017-May-22 04:00S 34°56' E 030°11'714.1
2017-May-22 03:31S 34°59' E 030°03'713.5
2017-May-22 03:00S 35°00' E 029°55'713.7
2017-May-22 02:30S 35°00' E 029°47'713.9
2017-May-22 02:01S 35°00' E 029°38'714.0
2017-May-22 01:31S 35°00' E 029°30'714.0
2017-May-22 01:01S 35°00' E 029°21'713.8
2017-May-22 00:30S 35°00' E 029°13'713.7
2017-May-22 00:01S 35°01' E 029°04'1014.1
2017-May-21 23:18S 35°01' E 028°52'  
Track history (hours):
 
Tides and Currents Weather Stations Pressure Air Temp Water Temp Dewpoint Dewpoint Depression Visibility Wind Speed Wind Dir Waves Ship Positions

Ikan Bagat

Last reported at 2017-May-23 22:25 UTC. Time now 2017-May-28 18:35 UTC.
Position S 30°40' E 040°55'.

Length 229 m; draft 10.5 m.

Type: Ship. MMSI: 354375000.

Date/timePositionNaut miles runAvg speedWind from/ knotsBaromVisibWave heightAir tempDewpointWater temp
2017-May-23 22:25S 30°40' E 040°55'1015.3
2017-May-23 21:48S 30°44' E 040°45'515.3
2017-May-23 21:28S 30°46' E 040°40'1214.9
2017-May-23 20:40S 30°51' E 040°27'314.8
2017-May-23 20:29S 30°53' E 040°24'714.9
2017-May-23 20:00S 30°56' E 040°17'3614.5
2017-May-23 17:32S 31°11' E 039°39'114.2
2017-May-23 17:29S 31°11' E 039°38'2014.5
2017-May-23 16:06S 31°20' E 039°17'114.4
2017-May-23 16:00S 31°20' E 039°15'714.2
2017-May-23 15:30S 31°23' E 039°08'714.2
2017-May-23 14:59S 31°27' E 039°00'1414.3
2017-May-23 14:00S 31°33' E 038°46'714.2
2017-May-23 13:30S 31°36' E 038°38'713.9
2017-May-23 13:00S 31°39' E 038°30'713.6
2017-May-23 12:28S 31°42' E 038°23'713.6
2017-May-23 11:59S 31°45' E 038°16'713.6
2017-May-23 11:28S 31°48' E 038°08'613.8
2017-May-23 11:01S 31°50' E 038°02'713.9
2017-May-23 10:29S 31°53' E 037°54'713.8
2017-May-23 10:00S 31°56' E 037°47'713.9
2017-May-23 09:30S 31°59' E 037°39'714.2
2017-May-23 08:59S 32°02' E 037°31'714.2
2017-May-23 08:31S 32°05' E 037°24'714.3
2017-May-23 08:00S 32°08' E 037°17'714.4
2017-May-23 07:30S 32°11' E 037°09'714.5
2017-May-23 07:01S 32°14' E 037°01'714.3
2017-May-23 06:29S 32°18' E 036°53'714.3
2017-May-23 06:01S 32°20' E 036°46'814.4
2017-May-23 05:29S 32°24' E 036°38'714.2
2017-May-23 05:01S 32°27' E 036°31'713.7
2017-May-23 04:29S 32°30' E 036°23'613.4
2017-May-23 04:00S 32°32' E 036°16'713.6
2017-May-23 03:30S 32°35' E 036°09'713.6
2017-May-23 03:01S 32°38' E 036°01'713.5
2017-May-23 02:30S 32°41' E 035°54'713.7
2017-May-23 02:00S 32°44' E 035°47'713.8
2017-May-23 01:29S 32°47' E 035°39'713.6
2017-May-23 01:00S 32°50' E 035°32'813.6
2017-May-23 00:27S 32°53' E 035°24'613.5
2017-May-23 00:01S 32°56' E 035°17'713.7
2017-May-22 23:30S 32°59' E 035°10'714.0
2017-May-22 23:01S 33°02' E 035°03'713.7
2017-May-22 22:30S 33°05' E 034°55'713.8
2017-May-22 22:00S 33°07' E 034°48'714.0
2017-May-22 21:31S 33°10' E 034°40'714.1
2017-May-22 21:00S 33°14' E 034°33'713.9
2017-May-22 20:31S 33°16' E 034°25'714.1
2017-May-22 20:00S 33°19' E 034°17'714.0
2017-May-22 19:30S 33°22' E 034°10'714.0
2017-May-22 19:00S 33°25' E 034°02'713.6
2017-May-22 18:30S 33°28' E 033°55'713.7
2017-May-22 18:00S 33°31' E 033°47'914.0
2017-May-22 17:22S 33°35' E 033°38'614.2
2017-May-22 16:57S 33°38' E 033°31'714.0
2017-May-22 16:29S 33°40' E 033°24'714.0
2017-May-22 16:00S 33°43' E 033°17'714.0
2017-May-22 15:30S 33°46' E 033°09'814.0
2017-May-22 14:58S 33°49' E 033°01'2214.3
2017-May-22 13:28S 33°59' E 032°38'714.7
2017-May-22 13:00S 34°02' E 032°30'714.7
2017-May-22 12:30S 34°05' E 032°22'714.6
2017-May-22 12:00S 34°08' E 032°14'714.5
2017-May-22 11:30S 34°11' E 032°06'714.5
2017-May-22 11:00S 34°14' E 031°59'714.2
2017-May-22 10:30S 34°17' E 031°51'714.2
2017-May-22 10:00S 34°20' E 031°43'1214.1
2017-May-22 09:11S 34°25' E 031°30'214.0
2017-May-22 09:00S 34°26' E 031°28'713.9
2017-May-22 08:30S 34°29' E 031°20'714.1
2017-May-22 08:01S 34°32' E 031°12'714.0
2017-May-22 07:30S 34°35' E 031°05'713.7
2017-May-22 07:01S 34°38' E 030°57'714.1
2017-May-22 06:31S 34°41' E 030°49'714.4
2017-May-22 06:01S 34°44' E 030°41'713.9
2017-May-22 05:30S 34°47' E 030°34'713.7
2017-May-22 05:00S 34°49' E 030°26'713.7
2017-May-22 04:31S 34°52' E 030°18'714.2
2017-May-22 04:00S 34°56' E 030°11'714.1
2017-May-22 03:31S 34°59' E 030°03'713.5
2017-May-22 03:00S 35°00' E 029°55'713.7
2017-May-22 02:30S 35°00' E 029°47'713.9
2017-May-22 02:01S 35°00' E 029°38'714.0
2017-May-22 01:31S 35°00' E 029°30'714.0
2017-May-22 01:01S 35°00' E 029°21'713.8
2017-May-22 00:30S 35°00' E 029°13'713.7
2017-May-22 00:01S 35°01' E 029°04'1014.1
2017-May-21 23:18S 35°01' E 028°52'  

Dump ship's entire track history